SALOWW 190820Z 14003KT 110V180 5000 BR NSC 02/M00 Q1020 WS ALL RWY NOSIG
FTLOWW 190815Z 1909/2015 17003KT 6000 NSC TX10/2014Z TN01/1909Z FM191200 29008KT CAVOK TEMPO 1923/2006 9999 BKN045 TEMPO 2009/2015 31015KT